createdAt,value
2024-03-10T00:00:25.566Z,23.60
2024-03-10T00:03:27.368Z,24.58
2024-03-10T00:06:29.681Z,24.25
2024-03-10T00:09:31.503Z,22.30
2024-03-10T00:12:33.298Z,21.85
2024-03-10T00:15:35.227Z,23.02
2024-03-10T00:18:38.159Z,23.75
2024-03-10T00:21:40.378Z,24.20
2024-03-10T00:24:43.846Z,23.13
2024-03-10T00:27:45.540Z,22.77
2024-03-10T00:30:49.514Z,23.77
2024-03-10T00:33:51.226Z,23.83
2024-03-10T00:36:52.918Z,21.85
2024-03-10T00:39:54.977Z,22.73
2024-03-10T00:42:57.119Z,22.55
2024-03-10T00:45:58.696Z,23.10
2024-03-10T00:49:00.377Z,24.10
2024-03-10T00:52:02.007Z,22.65
2024-03-10T00:55:03.892Z,22.52
2024-03-10T00:58:06.058Z,21.48
2024-03-10T01:01:07.697Z,22.23
2024-03-10T01:04:09.368Z,21.67
2024-03-10T01:07:11.061Z,22.30
2024-03-10T01:10:13.205Z,24.00
2024-03-10T01:13:16.676Z,22.77
2024-03-10T01:16:18.292Z,22.38
2024-03-10T01:19:19.892Z,22.80
2024-03-10T01:22:22.504Z,21.50
2024-03-10T01:25:24.153Z,22.33
2024-03-10T01:28:27.694Z,21.90
2024-03-10T01:31:29.303Z,23.75
2024-03-10T01:34:31.771Z,22.33
2024-03-10T01:37:34.738Z,23.00
2024-03-10T01:40:36.809Z,21.85
2024-03-10T01:43:38.839Z,20.45
2024-03-10T01:46:41.836Z,21.10
2024-03-10T01:49:44.103Z,20.95
2024-03-10T01:52:48.478Z,20.67
2024-03-10T01:55:50.322Z,21.33
2024-03-10T01:58:54.552Z,21.52
2024-03-10T02:01:56.261Z,21.40
2024-03-10T02:04:58.919Z,19.85
2024-03-10T02:08:00.559Z,20.73
2024-03-10T02:11:02.819Z,21.05
2024-03-10T02:14:04.509Z,19.73
2024-03-10T02:17:12.829Z,20.92
2024-03-10T02:20:21.557Z,20.50
2024-03-10T02:23:29.968Z,20.98
2024-03-10T02:26:38.103Z,20.38
2024-03-10T02:29:59.799Z,20.60
2024-03-10T02:33:20.440Z,20.30
2024-03-10T02:36:40.974Z,21.20
2024-03-10T02:40:01.563Z,19.45
2024-03-10T02:43:22.234Z,21.08
2024-03-10T02:46:42.698Z,21.33
2024-03-10T02:49:44.818Z,22.23
2024-03-10T02:52:46.597Z,21.13
2024-03-10T02:55:48.458Z,20.63
2024-03-10T02:58:50.434Z,21.90
2024-03-10T03:01:52.562Z,22.92
2024-03-10T03:04:54.403Z,21.90
2024-03-10T03:08:01.897Z,22.55
2024-03-10T03:14:21.378Z,23.08
2024-03-10T03:17:25.366Z,23.10
2024-03-10T03:20:28.181Z,22.20
2024-03-10T03:23:30.893Z,22.67
2024-03-10T03:26:32.594Z,23.77
2024-03-10T03:29:34.829Z,24.27
2024-03-10T03:32:36.762Z,23.60
2024-03-10T03:35:39.041Z,23.48
2024-03-10T03:38:44.480Z,25.15
2024-03-10T03:41:47.262Z,22.30
2024-03-10T03:44:50.932Z,23.88
2024-03-10T03:47:52.703Z,23.15
2024-03-10T03:50:54.518Z,23.55
2024-03-10T03:53:56.267Z,24.45
2024-03-10T03:56:59.326Z,23.58
2024-03-10T04:00:01.893Z,25.50
2024-03-10T04:03:03.690Z,23.10
2024-03-10T04:06:06.786Z,24.83
2024-03-10T04:09:09.050Z,23.65
2024-03-10T04:12:10.874Z,24.13
2024-03-10T04:15:12.634Z,23.45
2024-03-10T04:18:14.749Z,24.02
2024-03-10T04:21:17.011Z,23.20
2024-03-10T04:24:21.571Z,24.50
2024-03-10T04:27:25.273Z,22.85
2024-03-10T04:30:27.442Z,23.92
2024-03-10T04:33:29.531Z,24.10
2024-03-10T04:36:31.429Z,23.13
2024-03-10T04:39:33.355Z,23.98
2024-03-10T04:42:35.539Z,22.70
2024-03-10T04:45:37.502Z,23.33
2024-03-10T04:48:39.144Z,23.42
2024-03-10T04:51:43.405Z,26.20
2024-03-10T04:54:46.810Z,23.52
2024-03-10T04:57:49.727Z,23.42
2024-03-10T05:00:51.470Z,24.25
2024-03-10T05:03:53.170Z,25.15
2024-03-10T05:06:54.866Z,23.63
2024-03-10T05:09:56.565Z,23.73
2024-03-10T05:12:58.227Z,23.90
2024-03-10T05:15:59.990Z,24.85
2024-03-10T05:19:01.994Z,23.58
2024-03-10T05:22:04.417Z,23.67
2024-03-10T05:25:09.321Z,24.13
2024-03-10T05:28:11.986Z,23.15
2024-03-10T05:31:31.220Z,23.35
2024-03-10T05:34:40.750Z,23.83
2024-03-10T05:37:42.715Z,22.70
2024-03-10T05:40:44.458Z,23.65
2024-03-10T05:43:46.876Z,22.58
2024-03-10T05:46:48.682Z,20.98
2024-03-10T05:49:50.434Z,23.05
2024-03-10T05:52:55.289Z,22.25
2024-03-10T05:55:57.460Z,22.67
2024-03-10T05:59:00.326Z,22.92
2024-03-10T06:02:02.027Z,23.98
2024-03-10T06:05:03.982Z,22.58
2024-03-10T06:08:06.959Z,22.77
2024-03-10T06:11:08.672Z,23.40
2024-03-10T06:14:10.539Z,21.20
2024-03-10T06:17:14.181Z,24.05
2024-03-10T06:20:34.565Z,21.80
2024-03-10T06:23:55.236Z,22.48
2024-03-10T06:29:58.625Z,20.60
2024-03-10T06:33:00.346Z,22.10
2024-03-10T06:36:05.235Z,22.52
2024-03-10T06:39:07.580Z,21.88
2024-03-10T06:42:09.270Z,24.10
2024-03-10T06:45:10.964Z,23.83
2024-03-10T06:48:14.891Z,22.38
2024-03-10T06:54:35.466Z,20.95
2024-03-10T06:58:04.529Z,23.27
2024-03-10T07:01:09.302Z,22.90
2024-03-10T07:04:14.957Z,23.15
2024-03-10T07:07:19.745Z,22.85
2024-03-10T07:10:21.414Z,23.45
2024-03-10T07:13:29.506Z,21.17
2024-03-10T07:16:32.837Z,23.10
2024-03-10T07:19:43.950Z,22.98
2024-03-10T07:22:47.309Z,24.13
2024-03-10T07:25:50.661Z,22.73
2024-03-10T07:28:55.191Z,22.48
2024-03-10T07:31:56.930Z,22.35
2024-03-10T07:35:01.746Z,23.10
2024-03-10T07:38:05.002Z,23.00
2024-03-10T07:41:07.064Z,24.20
2024-03-10T07:44:08.783Z,22.40
2024-03-10T07:47:11.303Z,24.10
2024-03-10T07:50:16.817Z,22.38
2024-03-10T07:53:18.601Z,24.42
2024-03-10T07:56:20.974Z,23.65
2024-03-10T07:59:23.094Z,22.33
2024-03-10T08:02:25.005Z,22.27
2024-03-10T08:05:26.798Z,23.80
2024-03-10T08:08:29.097Z,22.42
2024-03-10T08:11:31.736Z,23.80
2024-03-10T08:14:35.587Z,24.48
2024-03-10T08:17:37.606Z,23.52
2024-03-10T08:20:42.145Z,23.73
2024-03-10T08:23:46.054Z,24.85
2024-03-10T08:26:47.728Z,24.73
2024-03-10T08:29:50.097Z,22.92
2024-03-10T08:32:52.075Z,24.60
2024-03-10T08:35:54.470Z,23.55
2024-03-10T08:41:58.938Z,24.35
2024-03-10T08:45:00.501Z,23.10
2024-03-10T08:48:06.028Z,23.60
2024-03-10T08:51:07.811Z,22.98
2024-03-10T08:54:10.717Z,23.05
2024-03-10T08:57:13.649Z,23.60
2024-03-10T09:00:15.659Z,23.35
2024-03-10T09:03:17.495Z,22.90
2024-03-10T09:06:19.121Z,22.73
2024-03-10T09:09:21.262Z,22.55
2024-03-10T09:12:22.969Z,23.85
2024-03-10T09:15:24.912Z,23.50
2024-03-10T09:18:27.100Z,23.10
2024-03-10T09:21:28.753Z,24.70
2024-03-10T09:24:31.472Z,26.52
2024-03-10T09:27:33.090Z,29.40
2024-03-10T09:30:35.046Z,29.55
2024-03-10T09:33:38.790Z,29.98
2024-03-10T09:36:41.426Z,29.17
2024-03-10T09:39:43.204Z,29.35
2024-03-10T09:42:45.124Z,27.52
2024-03-10T09:45:52.633Z,28.10
2024-03-10T09:48:56.021Z,25.70
2024-03-10T09:51:58.494Z,24.20
2024-03-10T09:55:05.328Z,23.85
2024-03-10T09:58:20.199Z,25.15
2024-03-10T10:01:29.365Z,22.70
2024-03-10T10:04:36.972Z,21.65
2024-03-10T10:07:38.736Z,22.33
2024-03-10T10:10:52.875Z,22.92
2024-03-10T10:14:17.405Z,23.17
2024-03-10T10:17:20.052Z,21.85
2024-03-10T10:20:26.315Z,23.50
2024-03-10T10:23:30.633Z,21.08
2024-03-10T10:26:32.374Z,21.73
2024-03-10T10:29:49.562Z,22.70
2024-03-10T10:33:04.334Z,22.17
2024-03-10T10:36:06.440Z,21.83
2024-03-10T10:39:11.508Z,22.20
2024-03-10T10:42:21.834Z,21.63
2024-03-10T10:45:32.427Z,21.42
2024-03-10T10:48:36.882Z,22.65
2024-03-10T10:51:38.708Z,21.02
2024-03-10T10:54:41.906Z,21.20
2024-03-10T10:57:45.582Z,22.10
2024-03-10T11:01:01.976Z,22.60
2024-03-10T11:04:05.201Z,22.98
2024-03-10T11:07:08.998Z,23.48
2024-03-10T11:10:40.382Z,22.83
2024-03-10T11:13:43.354Z,23.25
2024-03-10T11:16:45.356Z,22.45
2024-03-10T11:19:49.140Z,21.50
2024-03-10T11:22:55.189Z,21.27
2024-03-10T11:26:02.731Z,22.52
2024-03-10T11:29:05.266Z,22.88
2024-03-10T11:32:27.504Z,22.25
2024-03-10T11:35:30.224Z,24.40
2024-03-10T11:38:32.544Z,23.45
2024-03-10T11:41:35.201Z,23.40
2024-03-10T11:44:38.075Z,23.45
2024-03-10T11:47:39.729Z,23.10
2024-03-10T11:50:42.492Z,23.02
2024-03-10T11:53:44.149Z,23.25
2024-03-10T11:56:51.738Z,22.85
2024-03-10T11:59:56.626Z,25.63
2024-03-10T12:02:58.495Z,26.20
2024-03-10T12:06:00.218Z,26.05
2024-03-10T12:09:02.124Z,26.40
2024-03-10T12:12:15.075Z,27.83
2024-03-10T12:15:18.813Z,27.20
2024-03-10T12:18:22.155Z,27.40
2024-03-10T12:21:28.885Z,26.88
2024-03-10T12:24:31.755Z,27.85
2024-03-10T12:27:33.641Z,27.85
2024-03-10T12:30:35.989Z,28.45
2024-03-10T12:33:38.609Z,27.00
2024-03-10T12:36:40.328Z,27.33
2024-03-10T12:39:41.974Z,28.52
2024-03-10T12:42:44.521Z,27.67
2024-03-10T12:45:46.172Z,27.70
2024-03-10T12:48:48.948Z,26.80
2024-03-10T12:51:50.596Z,25.73
2024-03-10T12:54:52.190Z,28.05
2024-03-10T12:57:55.524Z,25.40
2024-03-10T13:00:57.138Z,26.30
2024-03-10T13:03:58.996Z,27.67
2024-03-10T13:07:00.618Z,28.30
2024-03-10T13:10:02.362Z,26.55
2024-03-10T13:13:08.678Z,28.00
2024-03-10T13:16:10.534Z,28.48
2024-03-10T13:19:12.392Z,28.70
2024-03-10T13:22:14.103Z,29.38
2024-03-10T13:25:15.873Z,28.50
2024-03-10T13:28:18.850Z,27.90
2024-03-10T13:31:20.447Z,29.02
2024-03-10T13:34:22.636Z,28.48
2024-03-10T13:37:24.213Z,29.08
2024-03-10T13:40:26.612Z,28.48
2024-03-10T13:43:28.207Z,28.25
2024-03-10T13:46:30.246Z,28.13
2024-03-10T13:49:32.045Z,28.17
2024-03-10T13:52:33.991Z,28.73
2024-03-10T13:55:35.571Z,28.83
2024-03-10T13:58:37.845Z,29.30
2024-03-10T14:01:39.525Z,29.65
2024-03-10T14:04:41.415Z,30.48
2024-03-10T14:07:44.792Z,28.85
2024-03-10T14:10:46.900Z,30.25
2024-03-10T14:13:49.429Z,29.92
2024-03-10T14:16:51.121Z,30.05
2024-03-10T14:19:52.913Z,30.80
2024-03-10T14:22:55.009Z,29.73
2024-03-10T14:25:56.592Z,30.15
2024-03-10T14:28:58.881Z,34.10
2024-03-10T14:32:00.506Z,32.78
2024-03-10T14:35:02.171Z,30.35
2024-03-10T14:38:05.628Z,31.52
2024-03-10T14:41:08.472Z,29.90
2024-03-10T14:44:11.653Z,30.48
2024-03-10T14:47:13.586Z,29.50
2024-03-10T14:50:17.594Z,31.27
2024-03-10T14:53:19.660Z,29.92
2024-03-10T14:56:21.376Z,30.60
2024-03-10T14:59:23.068Z,29.92
2024-03-10T15:02:24.933Z,29.02
2024-03-10T15:05:26.636Z,30.83
2024-03-10T15:08:28.399Z,30.23
2024-03-10T15:11:32.008Z,28.63
2024-03-10T15:14:35.427Z,30.17
2024-03-10T15:17:37.534Z,30.05
2024-03-10T15:20:47.559Z,29.42
2024-03-10T15:23:49.193Z,28.95
2024-03-10T15:26:51.907Z,27.27
2024-03-10T15:29:53.767Z,30.05
2024-03-10T15:32:55.660Z,29.05
2024-03-10T15:35:57.283Z,28.67
2024-03-10T15:38:58.937Z,29.00
2024-03-10T15:42:00.742Z,28.48
2024-03-10T15:45:02.414Z,27.73
2024-03-10T15:48:05.926Z,30.92
2024-03-10T15:51:08.458Z,28.45
2024-03-10T15:54:11.413Z,26.95
2024-03-10T15:57:14.460Z,28.60
2024-03-10T16:00:16.603Z,27.63
2024-03-10T16:03:30.946Z,30.33
2024-03-10T16:06:33.117Z,28.83
2024-03-10T16:09:34.942Z,28.88
2024-03-10T16:12:38.680Z,29.77
2024-03-10T16:15:40.750Z,30.77
2024-03-10T16:18:43.530Z,30.02
2024-03-10T16:21:47.037Z,30.90
2024-03-10T16:24:48.625Z,30.73
2024-03-10T16:27:50.979Z,31.42
2024-03-10T16:30:52.955Z,33.55
2024-03-10T16:33:54.835Z,30.92
2024-03-10T16:36:56.498Z,32.20
2024-03-10T16:39:59.828Z,31.42
2024-03-10T16:43:01.522Z,32.95
2024-03-10T16:46:03.324Z,33.30
2024-03-10T16:49:04.928Z,31.15
2024-03-10T16:52:06.879Z,32.00
2024-03-10T16:55:08.933Z,32.45
2024-03-10T16:58:10.979Z,33.45
2024-03-10T17:01:12.627Z,32.83
2024-03-10T17:04:17.546Z,31.38
2024-03-10T17:07:19.220Z,31.95
2024-03-10T17:10:20.865Z,32.50
2024-03-10T17:13:22.586Z,31.73
2024-03-10T17:16:24.348Z,33.63
2024-03-10T17:19:25.958Z,33.22
2024-03-10T17:22:27.593Z,32.97
2024-03-10T17:25:29.391Z,32.78
2024-03-10T17:28:31.098Z,34.28
2024-03-10T17:31:32.740Z,32.33
2024-03-10T17:34:36.873Z,31.20
2024-03-10T17:37:38.689Z,31.75
2024-03-10T17:40:41.491Z,32.58
2024-03-10T17:43:46.699Z,31.17
2024-03-10T17:46:48.328Z,32.25
2024-03-10T17:49:49.992Z,29.95
2024-03-10T17:52:52.853Z,31.40
2024-03-10T17:55:54.823Z,30.38
2024-03-10T17:58:56.574Z,31.92
2024-03-10T18:01:58.906Z,31.67
2024-03-10T18:05:00.748Z,29.45
2024-03-10T18:08:02.872Z,30.17
2024-03-10T18:11:04.704Z,30.60
2024-03-10T18:14:06.777Z,30.98
2024-03-10T18:17:11.147Z,31.15
2024-03-10T18:20:14.602Z,31.48
2024-03-10T18:23:19.077Z,33.22
2024-03-10T18:26:20.844Z,30.13
2024-03-10T18:29:22.762Z,30.17
2024-03-10T18:32:24.476Z,28.92
2024-03-10T18:35:29.001Z,30.38
2024-03-10T18:38:30.635Z,31.75
2024-03-10T18:41:32.786Z,32.10
2024-03-10T18:44:34.417Z,30.52
2024-03-10T18:47:37.709Z,29.35
2024-03-10T18:50:42.768Z,30.10
2024-03-10T18:53:44.691Z,29.92
2024-03-10T18:56:46.425Z,29.80
2024-03-10T18:59:48.512Z,30.45
2024-03-10T19:02:53.340Z,31.52
2024-03-10T19:05:54.998Z,31.35
2024-03-10T19:08:56.602Z,30.88
2024-03-10T19:11:58.350Z,30.50
2024-03-10T19:14:59.991Z,29.02
2024-03-10T19:18:03.063Z,31.48
2024-03-10T19:21:05.305Z,34.75
2024-03-10T19:24:07.727Z,30.73
2024-03-10T19:27:09.395Z,32.63
2024-03-10T19:30:12.927Z,33.42
2024-03-10T19:33:14.947Z,35.38
2024-03-10T19:36:16.571Z,41.83
2024-03-10T19:39:18.463Z,33.67
2024-03-10T19:42:20.301Z,37.22
2024-03-10T19:45:23.106Z,31.08
2024-03-10T19:48:25.292Z,31.90
2024-03-10T19:51:27.341Z,31.45
2024-03-10T19:54:28.979Z,28.85
2024-03-10T19:57:30.639Z,29.35
2024-03-10T20:00:32.288Z,30.40
2024-03-10T20:03:34.705Z,32.85
2024-03-10T20:06:36.397Z,29.80
2024-03-10T20:09:38.032Z,30.00
2024-03-10T20:12:47.934Z,32.67
2024-03-10T20:15:52.662Z,30.25
2024-03-10T20:18:54.255Z,32.53
2024-03-10T20:21:55.881Z,29.88
2024-03-10T20:24:57.868Z,28.52
2024-03-10T20:28:00.245Z,32.03
2024-03-10T20:31:02.258Z,29.17
2024-03-10T20:34:03.861Z,28.75
2024-03-10T20:37:05.544Z,30.55
2024-03-10T20:40:07.785Z,33.72
2024-03-10T20:43:09.450Z,31.80
2024-03-10T20:46:16.612Z,31.25
2024-03-10T20:49:24.951Z,32.33
2024-03-10T20:52:26.573Z,32.15
2024-03-10T20:55:28.247Z,34.10
2024-03-10T20:58:29.915Z,30.40
2024-03-10T21:01:31.668Z,32.83
2024-03-10T21:04:40.556Z,32.50
2024-03-10T21:07:44.384Z,30.17
2024-03-10T21:10:46.466Z,33.20
2024-03-10T21:13:49.150Z,33.50
2024-03-10T21:16:50.828Z,33.10
2024-03-10T21:19:52.485Z,34.15
2024-03-10T21:22:54.485Z,32.25
2024-03-10T21:25:57.482Z,32.38
2024-03-10T21:28:59.131Z,35.05
2024-03-10T21:32:00.882Z,32.80
2024-03-10T21:35:03.559Z,33.60
2024-03-10T21:38:09.133Z,31.98
2024-03-10T21:41:10.810Z,35.03
2024-03-10T21:44:13.402Z,34.88
2024-03-10T21:47:15.061Z,34.72
2024-03-10T21:50:16.949Z,36.83
2024-03-10T21:53:21.335Z,36.97
2024-03-10T21:56:23.380Z,34.15
2024-03-10T21:59:25.055Z,35.50
2024-03-10T22:02:26.990Z,35.03
2024-03-10T22:05:29.390Z,33.10
2024-03-10T22:08:31.034Z,33.40
2024-03-10T22:11:32.754Z,35.70
2024-03-10T22:14:34.496Z,31.80
2024-03-10T22:17:36.182Z,35.05
2024-03-10T22:20:38.165Z,32.95
2024-03-10T22:23:40.428Z,30.73
2024-03-10T22:26:43.447Z,33.63
2024-03-10T22:29:46.866Z,33.28
2024-03-10T22:32:49.967Z,32.45
2024-03-10T22:35:51.652Z,35.55
2024-03-10T22:38:53.317Z,32.88
2024-03-10T22:41:55.984Z,34.03
2024-03-10T22:45:01.017Z,33.13
2024-03-10T22:48:08.012Z,34.13
2024-03-10T22:51:09.716Z,32.05
2024-03-10T22:54:14.569Z,34.50
2024-03-10T22:57:16.186Z,35.72
2024-03-10T23:00:23.975Z,31.77
2024-03-10T23:03:26.220Z,32.13
2024-03-10T23:06:27.918Z,33.67
2024-03-10T23:09:29.461Z,33.80
2024-03-10T23:12:32.687Z,35.60
2024-03-10T23:15:35.367Z,37.53
2024-03-10T23:18:37.126Z,36.55
2024-03-10T23:21:38.728Z,33.92
2024-03-10T23:24:40.293Z,36.20
2024-03-10T23:27:41.860Z,35.28
2024-03-10T23:30:43.512Z,36.60
2024-03-10T23:33:45.709Z,37.40
2024-03-10T23:36:47.954Z,35.35
2024-03-10T23:39:49.560Z,35.03
2024-03-10T23:42:52.168Z,37.08
2024-03-10T23:45:53.788Z,39.45
2024-03-10T23:48:55.403Z,35.50
2024-03-10T23:51:56.987Z,39.33
2024-03-10T23:54:58.588Z,36.50
2024-03-10T23:58:00.181Z,38.65
